Time;durP1;ratioP1;P1;durP2;ratioP2;P2;SDS_P1;SDS_P2;PMS_P1;PMS_P2;Temp;Humidity;BMP_temperature;BMP_pressure;BME280_temperature;BME280_humidity;BME280_pressure;Samples;Min_cycle;Max_cycle;Signal;HPM_P1;HPM_P2
2021/08/21 00:00:52;;;;;;;36.75;18.50;;;;;;;14.15;100.00;101804.13;5230186;28;20063;-81
2021/08/21 00:03:23;;;;;;;35.55;17.55;;;;;;;14.10;100.00;101803.78;5229696;28;20053;-81
2021/08/21 00:05:53;;;;;;;43.70;19.55;;;;;;;14.05;100.00;101810.69;5212425;28;20032;-81
2021/08/21 00:08:24;;;;;;;37.10;17.98;;;;;;;14.01;100.00;101810.19;5212985;28;20051;-81
2021/08/21 00:10:54;;;;;;;35.72;17.83;;;;;;;13.98;100.00;101803.25;5229515;28;20486;-81
2021/08/21 00:13:25;;;;;;;40.33;18.15;;;;;;;13.99;100.00;101796.84;5229736;28;20083;-81
2021/08/21 00:15:55;;;;;;;48.20;22.73;;;;;;;14.03;100.00;101794.69;5229708;28;20029;-81
2021/08/21 00:18:26;;;;;;;40.20;21.30;;;;;;;14.10;100.00;101795.69;5229713;28;20080;-81
2021/08/21 00:20:56;;;;;;;40.83;18.02;;;;;;;14.04;100.00;101792.81;5231124;28;20017;-81
2021/08/21 00:23:27;;;;;;;46.38;19.70;;;;;;;13.98;100.00;101794.34;5229852;28;20391;-81
2021/08/21 00:25:57;;;;;;;49.50;21.05;;;;;;;13.94;100.00;101798.38;5229543;28;20032;-81
2021/08/21 00:28:28;;;;;;;45.00;20.92;;;;;;;13.88;100.00;101794.47;5228778;28;20544;-81
2021/08/21 00:30:58;;;;;;;53.10;22.05;;;;;;;13.85;100.00;101800.19;5193907;28;20119;-81
2021/08/21 00:33:29;;;;;;;47.85;21.70;;;;;;;13.80;100.00;101797.13;5229058;28;20020;-80
2021/08/21 00:35:59;;;;;;;47.63;19.98;;;;;;;13.78;100.00;101801.03;5223998;28;20025;-81
2021/08/21 00:38:30;;;;;;;47.83;20.85;;;;;;;13.79;100.00;101791.91;5223505;28;20063;-81
2021/08/21 00:41:00;;;;;;;44.72;18.15;;;;;;;13.77;100.00;101793.94;5216413;28;20009;-81
2021/08/21 00:43:34;;;;;;;41.70;17.75;;;;;;;13.72;100.00;101795.28;5209021;28;20021;-80
2021/08/21 00:46:04;;;;;;;45.05;18.02;;;;;;;13.72;100.00;101791.75;5222036;28;20397;-81
2021/08/21 00:48:35;;;;;;;44.50;19.55;;;;;;;13.72;100.00;101794.44;5221673;28;20033;-81
2021/08/21 00:51:05;;;;;;;41.03;17.75;;;;;;;13.68;100.00;101796.59;5208510;28;20091;-80
2021/08/21 00:53:36;;;;;;;44.20;19.90;;;;;;;13.65;100.00;101790.69;5221839;28;20033;-81
2021/08/21 00:56:07;;;;;;;56.08;20.48;;;;;;;13.64;100.00;101795.25;5221727;28;20050;-81
2021/08/21 00:58:38;;;;;;;46.65;20.02;;;;;;;13.62;100.00;101793.72;5219445;28;20094;-81
2021/08/21 01:01:08;;;;;;;40.08;17.92;;;;;;;13.56;100.00;101792.53;5222396;28;20056;-81
2021/08/21 01:03:39;;;;;;;45.38;19.00;;;;;;;13.51;100.00;101791.34;5219306;28;20021;-81
2021/08/21 01:06:10;;;;;;;44.42;19.60;;;;;;;13.47;100.00;101788.94;5225621;28;20041;-81
2021/08/21 01:08:41;;;;;;;38.42;18.80;;;;;;;13.43;100.00;101787.59;5220658;28;20024;-81
2021/08/21 01:11:15;;;;;;;47.80;20.50;;;;;;;13.39;100.00;101783.50;5221658;28;20544;-81
2021/08/21 01:13:45;;;;;;;44.15;18.40;;;;;;;13.34;100.00;101788.53;5227886;28;20033;-81
2021/08/21 01:16:17;;;;;;;40.15;18.08;;;;;;;13.31;100.00;101791.59;5197278;28;20029;-81
2021/08/21 01:18:48;;;;;;;37.88;17.25;;;;;;;13.30;100.00;101794.41;5229521;28;20124;-81
2021/08/21 01:21:21;;;;;;;35.47;14.10;;;;;;;13.27;100.00;101783.97;5231371;28;20074;-81
2021/08/21 01:24:08;;;;;;;20.27;10.55;;;;;;;13.21;100.00;101789.00;5228820;28;20059;-81
2021/08/21 01:26:56;;;;;;;19.83;10.57;;;;;;;13.19;100.00;101790.13;5230699;28;20048;-81
2021/08/21 01:29:27;;;;;;;24.35;11.85;;;;;;;13.13;100.00;101786.22;5218937;28;20052;-82
2021/08/21 01:31:57;;;;;;;13.05;7.82;;;;;;;13.13;100.00;101788.91;5228882;28;20025;-81
2021/08/21 01:34:29;;;;;;;20.77;10.77;;;;;;;13.11;100.00;101785.56;5229528;28;20049;-81
2021/08/21 01:36:59;;;;;;;27.30;10.68;;;;;;;13.10;100.00;101783.00;5229551;28;20359;-81
2021/08/21 01:39:30;;;;;;;21.58;11.00;;;;;;;13.08;100.00;101783.16;5228829;28;20409;-81
2021/08/21 01:42:02;;;;;;;33.42;13.50;;;;;;;13.05;100.00;101780.81;5229394;28;20028;-81
2021/08/21 01:44:32;;;;;;;29.13;13.50;;;;;;;13.06;100.00;101787.88;5233027;28;20052;-81
2021/08/21 01:47:03;;;;;;;8.82;5.20;;;;;;;13.05;100.00;101782.63;5219287;28;20021;-81
2021/08/21 01:49:34;;;;;;;18.58;9.48;;;;;;;13.01;100.00;101776.75;5219675;28;20021;-81
2021/08/21 01:52:05;;;;;;;23.23;11.00;;;;;;;12.97;100.00;101780.75;5233089;28;20417;-81
2021/08/21 01:54:37;;;;;;;32.08;11.10;;;;;;;12.96;100.00;101784.47;5213801;28;20025;-81
2021/08/21 01:57:07;;;;;;;26.05;12.00;;;;;;;12.94;100.00;101783.75;5237511;28;20044;-80
2021/08/21 01:59:41;;;;;;;27.48;11.73;;;;;;;12.92;100.00;101786.63;5231726;28;20571;-80
2021/08/21 02:02:15;;;;;;;22.88;11.63;;;;;;;12.90;100.00;101783.25;5226277;28;20036;-81
2021/08/21 02:04:45;;;;;;;29.05;12.65;;;;;;;12.92;100.00;101775.00;5227828;28;20033;-83
2021/08/21 02:07:16;;;;;;;23.38;12.38;;;;;;;12.95;100.00;101775.53;5231185;28;20029;-82
2021/08/21 02:09:46;;;;;;;26.20;11.57;;;;;;;12.99;100.00;101780.59;5236246;28;20091;-82
2021/08/21 02:12:17;;;;;;;29.23;12.50;;;;;;;13.03;100.00;101769.34;5239588;28;20028;-81
2021/08/21 02:14:50;;;;;;;30.15;13.95;;;;;;;13.08;100.00;101777.78;5232738;28;20036;-81
2021/08/21 02:17:21;;;;;;;31.48;13.57;;;;;;;13.11;100.00;101772.09;5233013;28;20406;-82
2021/08/21 02:19:51;;;;;;;30.75;14.10;;;;;;;13.14;100.00;101771.75;5232171;28;20436;-81
2021/08/21 02:22:22;;;;;;;36.88;14.90;;;;;;;13.18;100.00;101775.81;5232078;28;20487;-82
2021/08/21 02:24:52;;;;;;;35.00;15.02;;;;;;;13.21;100.00;101777.34;5232845;28;20049;-81
2021/08/21 02:27:25;;;;;;;32.75;14.80;;;;;;;13.23;100.00;101769.13;5233548;28;20053;-82
2021/08/21 02:29:56;;;;;;;34.95;15.10;;;;;;;13.27;100.00;101763.25;5233646;28;20032;-81
2021/08/21 02:32:26;;;;;;;35.88;15.57;;;;;;;13.30;100.00;101768.31;5233089;28;20025;-81
2021/08/21 02:34:57;;;;;;;34.80;15.45;;;;;;;13.32;100.00;101765.47;5232044;28;20036;-82
2021/08/21 02:37:27;;;;;;;30.00;14.40;;;;;;;13.32;100.00;101770.88;5233311;28;20029;-81
2021/08/21 02:39:58;;;;;;;25.98;12.95;;;;;;;13.33;100.00;101775.25;5218654;28;20025;-81
2021/08/21 02:42:28;;;;;;;21.33;10.95;;;;;;;13.32;100.00;101763.63;5220733;28;20187;-82
2021/08/21 02:44:59;;;;;;;28.27;13.25;;;;;;;13.29;100.00;101772.00;5224288;28;20210;-82
2021/08/21 02:47:29;;;;;;;32.55;12.98;;;;;;;13.27;100.00;101768.66;5221808;28;20083;-81
2021/08/21 02:50:00;;;;;;;23.92;11.63;;;;;;;13.26;100.00;101766.97;5232843;28;20045;-82
2021/08/21 02:52:30;;;;;;;27.55;11.77;;;;;;;13.23;100.00;101767.28;5215265;28;20033;-82
2021/08/21 02:55:01;;;;;;;28.27;11.98;;;;;;;13.20;100.00;101763.03;5231482;28;20039;-81
2021/08/21 02:57:32;;;;;;;31.65;13.63;;;;;;;13.18;100.00;101761.50;5232783;28;20090;-82
2021/08/21 03:00:03;;;;;;;32.95;15.30;;;;;;;13.19;100.00;101749.72;5231810;28;20033;-81
2021/08/21 03:02:34;;;;;;;29.17;13.90;;;;;;;13.18;100.00;101745.34;5194933;28;20024;-81
2021/08/21 03:05:05;;;;;;;36.22;15.90;;;;;;;13.13;100.00;101750.34;5233311;28;20021;-81
2021/08/21 03:07:35;;;;;;;39.70;16.17;;;;;;;13.10;100.00;101745.28;5233298;28;20025;-82
2021/08/21 03:10:07;;;;;;;38.45;15.32;;;;;;;13.03;100.00;101750.47;5231525;28;20035;-82
2021/08/21 03:12:38;;;;;;;47.33;16.10;;;;;;;12.98;100.00;101749.28;5227756;28;20040;-81
2021/08/21 03:15:08;;;;;;;30.65;14.65;;;;;;;12.90;100.00;101748.22;5227157;28;20021;-81
2021/08/21 03:17:39;;;;;;;35.92;15.98;;;;;;;12.88;100.00;101750.22;5227702;28;20033;-81
2021/08/21 03:20:10;;;;;;;31.15;13.77;;;;;;;12.85;100.00;101747.00;5227314;28;20032;-81
2021/08/21 03:22:41;;;;;;;32.75;13.00;;;;;;;12.79;100.00;101744.94;5226848;28;20020;-81
2021/08/21 03:25:11;;;;;;;24.40;12.43;;;;;;;12.77;100.00;101744.28;5226486;28;20433;-81
2021/08/21 03:27:42;;;;;;;34.08;13.07;;;;;;;12.75;100.00;101738.19;5226697;28;20024;-81
2021/08/21 03:30:13;;;;;;;22.75;12.10;;;;;;;12.73;100.00;101745.59;5226841;28;20025;-81
2021/08/21 03:32:44;;;;;;;32.08;13.77;;;;;;;12.71;100.00;101743.06;5226470;28;20474;-81
2021/08/21 03:35:14;;;;;;;25.52;10.60;;;;;;;12.72;100.00;101730.44;5221588;28;20087;-81
2021/08/21 03:37:45;;;;;;;32.33;12.85;;;;;;;12.73;100.00;101732.97;5215607;28;20422;-81
2021/08/21 03:40:15;;;;;;;28.95;13.25;;;;;;;12.70;100.00;101734.16;5220664;28;20021;-81
2021/08/21 03:42:46;;;;;;;28.08;13.77;;;;;;;12.68;100.00;101740.69;5222446;28;20083;-81
2021/08/21 03:45:16;;;;;;;18.02;9.20;;;;;;;12.63;100.00;101738.44;5223445;28;20037;-81
2021/08/21 03:47:47;;;;;;;22.92;10.27;;;;;;;12.60;100.00;101736.09;5210060;28;20021;-81
2021/08/21 03:50:17;;;;;;;47.60;12.25;;;;;;;12.58;100.00;101735.41;5223889;28;20112;-81
2021/08/21 03:52:48;;;;;;;36.47;17.52;;;;;;;12.55;100.00;101738.41;5223612;28;20033;-81
2021/08/21 03:55:18;;;;;;;43.72;17.50;;;;;;;12.53;100.00;101736.88;5223321;28;20089;-81
2021/08/21 03:57:49;;;;;;;35.78;17.30;;;;;;;12.51;100.00;101736.19;5223066;28;20055;-81
2021/08/21 04:00:19;;;;;;;26.90;12.93;;;;;;;12.49;100.00;101736.34;5222801;28;20166;-81
2021/08/21 04:02:50;;;;;;;45.28;14.13;;;;;;;12.52;100.00;101733.34;5192086;28;20103;-81
2021/08/21 04:05:21;;;;;;;33.38;13.60;;;;;;;12.52;100.00;101738.72;5223001;28;20276;-81
2021/08/21 04:07:51;;;;;;;31.15;13.10;;;;;;;12.50;100.00;101740.75;5223005;28;20378;-81
2021/08/21 04:10:22;;;;;;;24.25;11.48;;;;;;;12.47;100.00;101740.19;5224582;28;20107;-81
2021/08/21 04:12:53;;;;;;;43.85;13.77;;;;;;;12.38;100.00;101747.34;5218594;28;20087;-81
2021/08/21 04:15:23;;;;;;;28.90;13.55;;;;;;;12.31;100.00;101739.06;5216860;28;20458;-81
2021/08/21 04:17:54;;;;;;;29.88;13.60;;;;;;;12.29;100.00;101746.44;5224755;28;20025;-81
2021/08/21 04:20:25;;;;;;;32.63;14.13;;;;;;;12.27;100.00;101747.59;5224600;28;20025;-80
2021/08/21 04:22:56;;;;;;;27.10;12.15;;;;;;;12.23;100.00;101743.53;5224223;28;20049;-81
2021/08/21 04:25:27;;;;;;;28.10;12.68;;;;;;;12.18;100.00;101744.00;5224020;28;20037;-81
2021/08/21 04:27:57;;;;;;;26.60;12.32;;;;;;;12.14;100.00;101746.13;5214771;28;20026;-82
2021/08/21 04:30:28;;;;;;;29.73;13.63;;;;;;;12.12;100.00;101750.00;5220272;28;20482;-81
2021/08/21 04:32:59;;;;;;;31.42;14.38;;;;;;;12.12;100.00;101750.00;5190090;28;20542;-81
2021/08/21 04:35:29;;;;;;;38.28;15.82;;;;;;;12.11;100.00;101751.84;5224252;28;20035;-81
2021/08/21 04:38:01;;;;;;;20.42;11.45;;;;;;;12.14;100.00;101748.81;5224219;28;20084;-81
2021/08/21 04:40:32;;;;;;;29.13;11.70;;;;;;;12.19;100.00;101745.69;5223616;28;20549;-81
2021/08/21 04:43:02;;;;;;;16.85;9.02;;;;;;;12.23;100.00;101744.38;5225674;28;20103;-81
2021/08/21 04:45:33;;;;;;;22.50;10.75;;;;;;;12.25;100.00;101746.91;5225904;28;20046;-81
2021/08/21 04:48:04;;;;;;;24.15;11.20;;;;;;;12.26;100.00;101741.38;5211700;28;20033;-81
2021/08/21 04:50:36;;;;;;;24.05;11.80;;;;;;;12.28;100.00;101744.75;5226311;28;20394;-81
2021/08/21 04:53:07;;;;;;;24.92;11.85;;;;;;;12.30;100.00;101744.59;5227930;28;20017;-81
2021/08/21 04:55:37;;;;;;;39.75;18.35;;;;;;;12.32;100.00;101743.44;5229005;28;20079;-81
2021/08/21 04:58:08;;;;;;;41.10;18.10;;;;;;;12.38;100.00;101744.66;5230702;28;20017;-82
2021/08/21 05:00:39;;;;;;;36.10;17.48;;;;;;;12.41;100.00;101745.22;5229826;28;20067;-83
2021/08/21 05:03:09;;;;;;;28.52;13.93;;;;;;;12.40;100.00;101753.44;5231695;28;20029;-81
2021/08/21 05:05:40;;;;;;;29.38;13.52;;;;;;;12.40;100.00;101754.28;5229457;28;20024;-82
2021/08/21 05:08:10;;;;;;;27.38;14.30;;;;;;;12.42;100.00;101756.81;5233122;28;20037;-82
2021/08/21 05:10:40;;;;;;;26.55;13.55;;;;;;;12.47;100.00;101764.41;5233829;28;20029;-81
2021/08/21 05:13:11;;;;;;;34.45;14.05;;;;;;;12.53;100.00;101758.41;5234707;28;20028;-82
2021/08/21 05:15:42;;;;;;;31.45;14.40;;;;;;;12.57;100.00;101768.69;5229838;28;20100;-79
2021/08/21 05:18:13;;;;;;;25.70;14.00;;;;;;;12.65;100.00;101775.97;5231984;28;20112;-83
2021/08/21 05:20:51;;;;;;;32.17;15.10;;;;;;;12.77;100.00;101777.44;5237739;28;20088;-81
2021/08/21 05:23:21;;;;;;;38.75;16.77;;;;;;;12.92;100.00;101770.44;5234281;28;20112;-81
2021/08/21 05:25:52;;;;;;;36.10;15.07;;;;;;;13.08;100.00;101775.09;5229486;28;20119;-81
2021/08/21 05:28:22;;;;;;;35.05;16.17;;;;;;;13.50;100.00;101774.28;5229584;28;20097;-81
2021/08/21 05:30:54;;;;;;;31.13;14.48;;;;;;;14.20;100.00;101765.84;5229469;28;20279;-81
2021/08/21 05:33:26;;;;;;;25.13;13.35;;;;;;;14.74;100.00;101763.50;5227670;28;20016;-82
2021/08/21 05:35:57;;;;;;;24.33;13.05;;;;;;;15.25;100.00;101766.75;5208928;28;20021;-82
2021/08/21 05:38:27;;;;;;;20.23;11.25;;;;;;;15.77;100.00;101764.34;5211877;28;20481;-82
2021/08/21 05:40:58;;;;;;;16.10;8.75;;;;;;;15.70;100.00;101762.50;5228727;28;20029;-82
2021/08/21 05:43:28;;;;;;;17.33;10.80;;;;;;;15.31;100.00;101759.78;5228828;28;20021;-82
2021/08/21 05:45:59;;;;;;;18.00;10.68;;;;;;;15.06;100.00;101761.72;5229205;28;20495;-82
2021/08/21 05:48:29;;;;;;;24.67;13.07;;;;;;;15.12;100.00;101753.78;5210044;28;20293;-83
2021/08/21 05:51:00;;;;;;;22.23;12.57;;;;;;;15.03;100.00;101761.06;5209163;28;20041;-81
2021/08/21 05:53:32;;;;;;;26.55;13.43;;;;;;;15.01;100.00;101767.69;5228429;28;20032;-80
2021/08/21 05:56:03;;;;;;;29.35;14.43;;;;;;;14.82;100.00;101771.59;5215499;28;20025;-81
2021/08/21 05:58:34;;;;;;;26.92;15.60;;;;;;;14.73;100.00;101764.53;5212113;28;20494;-81
2021/08/21 06:01:04;;;;;;;26.80;14.68;;;;;;;14.60;100.00;101769.59;5229418;28;20027;-81
2021/08/21 06:03:35;;;;;;;27.30;15.45;;;;;;;14.55;100.00;101769.25;5229117;28;20116;-81
2021/08/21 06:06:10;;;;;;;29.90;14.43;;;;;;;14.64;100.00;101779.88;5218706;28;20271;-80
2021/08/21 06:08:40;;;;;;;27.02;14.60;;;;;;;15.10;100.00;101773.88;5230220;28;20020;-80
2021/08/21 06:11:11;;;;;;;24.55;14.07;;;;;;;15.88;100.00;101776.63;5230138;28;20033;-81
2021/08/21 06:13:41;;;;;;;25.02;12.07;;;;;;;16.96;100.00;101779.13;5229273;28;20107;-81
2021/08/21 06:16:12;;;;;;;21.20;12.20;;;;;;;17.49;100.00;101776.31;5229439;28;20084;-82
2021/08/21 06:18:42;;;;;;;21.60;11.75;;;;;;;17.87;100.00;101777.00;5229351;28;20056;-81
2021/08/21 06:21:13;;;;;;;19.98;12.10;;;;;;;17.75;100.00;101775.81;5211094;28;20036;-82
2021/08/21 06:23:43;;;;;;;21.25;12.25;;;;;;;17.58;100.00;101778.72;5228892;28;20025;-82
2021/08/21 06:26:14;;;;;;;19.67;12.20;;;;;;;17.35;100.00;101786.13;5228947;28;20108;-82
2021/08/21 06:28:44;;;;;;;21.70;12.77;;;;;;;17.21;100.00;101787.81;5228809;28;20044;-81
2021/08/21 06:31:15;;;;;;;21.55;13.45;;;;;;;17.14;100.00;101786.91;5226253;28;20052;-82
2021/08/21 06:33:45;;;;;;;22.83;13.43;;;;;;;16.92;100.00;101787.81;5195859;28;20444;-83
2021/08/21 06:36:16;;;;;;;21.25;13.23;;;;;;;17.16;100.00;101789.41;5227135;28;20094;-82
2021/08/21 06:38:46;;;;;;;20.52;13.27;;;;;;;17.29;100.00;101786.91;5226789;28;20124;-82
2021/08/21 06:41:17;;;;;;;27.58;14.10;;;;;;;17.48;100.00;101777.34;5221599;28;20033;-83
2021/08/21 06:43:47;;;;;;;20.33;12.38;;;;;;;17.67;100.00;101776.75;5226411;28;20500;-82
2021/08/21 06:46:18;;;;;;;20.73;12.27;;;;;;;17.75;100.00;101775.81;5224021;28;20513;-81
2021/08/21 06:48:48;;;;;;;23.45;12.68;;;;;;;18.03;100.00;101765.91;5194457;28;20470;-82
2021/08/21 06:51:19;;;;;;;17.85;11.82;;;;;;;18.27;100.00;101766.53;5222564;28;20392;-81
2021/08/21 06:53:49;;;;;;;20.00;10.50;;;;;;;18.55;100.00;101772.03;5213099;28;20052;-83
2021/08/21 06:56:20;;;;;;;19.15;10.30;;;;;;;18.82;100.00;101756.78;5224990;28;20032;-83
2021/08/21 06:58:50;;;;;;;17.10;9.90;;;;;;;18.97;100.00;101752.06;5225760;28;20086;-81
2021/08/21 07:01:21;;;;;;;18.70;9.80;;;;;;;19.10;100.00;101751.31;5210964;28;20095;-82
2021/08/21 07:03:51;;;;;;;17.75;10.75;;;;;;;19.05;100.00;101759.25;5224823;28;20067;-83
2021/08/21 07:06:21;;;;;;;19.17;10.55;;;;;;;19.24;100.00;101763.97;5219342;28;20331;-81
2021/08/21 07:08:52;;;;;;;18.65;9.57;;;;;;;19.14;100.00;101758.88;5204226;28;20044;-81
2021/08/21 07:11:22;;;;;;;14.13;9.07;;;;;;;19.09;100.00;101758.66;5234171;28;20027;-80
2021/08/21 07:13:53;;;;;;;12.32;8.40;;;;;;;19.26;100.00;101753.69;5223632;28;20128;-82
2021/08/21 07:16:23;;;;;;;15.10;9.15;;;;;;;19.42;100.00;101749.78;5204034;28;20021;-81
2021/08/21 07:18:54;;;;;;;11.48;7.65;;;;;;;19.66;100.00;101745.75;5203583;28;20079;-81
2021/08/21 07:21:25;;;;;;;12.02;8.00;;;;;;;19.78;100.00;101746.84;5203399;28;20034;-81
2021/08/21 07:23:55;;;;;;;10.93;7.97;;;;;;;19.56;100.00;101745.25;5216529;28;20453;-82
2021/08/21 07:26:26;;;;;;;10.15;7.53;;;;;;;19.37;100.00;101742.25;5170550;28;20199;-81
2021/08/21 07:28:56;;;;;;;11.73;8.13;;;;;;;19.47;100.00;101738.31;5218230;28;20117;-82
2021/08/21 07:31:27;;;;;;;12.32;8.20;;;;;;;19.56;100.00;101742.53;5205553;28;20025;-81
2021/08/21 07:33:57;;;;;;;14.38;7.45;;;;;;;19.55;100.00;101747.13;5220189;28;20033;-82
2021/08/21 07:36:28;;;;;;;10.60;7.20;;;;;;;19.67;100.00;101740.09;5218595;28;20103;-81
2021/08/21 07:38:58;;;;;;;8.95;6.10;;;;;;;19.95;100.00;101744.56;5225082;28;20080;-81
2021/08/21 07:41:34;;;;;;;8.88;5.80;;;;;;;20.09;100.00;101740.81;5226062;28;20017;-82
2021/08/21 07:44:04;;;;;;;9.43;4.70;;;;;;;20.42;100.00;101746.28;5226933;28;20367;-82
2021/08/21 07:46:35;;;;;;;9.00;5.10;;;;;;;20.66;100.00;101744.84;5212818;28;20075;-81
2021/08/21 07:49:05;;;;;;;8.73;5.07;;;;;;;20.82;100.00;101735.38;5224956;28;20033;-82
2021/08/21 07:51:37;;;;;;;8.65;4.15;;;;;;;20.95;100.00;101735.34;5212065;28;20073;-82
2021/08/21 07:54:07;;;;;;;8.35;4.30;;;;;;;20.95;100.00;101743.53;5213777;28;20498;-82
2021/08/21 07:56:38;;;;;;;7.22;4.10;;;;;;;21.02;100.00;101743.50;5225577;28;20082;-82
2021/08/21 07:59:08;;;;;;;5.22;3.35;;;;;;;21.23;100.00;101747.03;5226283;28;20492;-82
2021/08/21 08:01:39;;;;;;;5.97;3.50;;;;;;;21.52;100.00;101746.50;5208540;28;20445;-82
2021/08/21 08:04:09;;;;;;;5.57;3.05;;;;;;;21.79;100.00;101754.56;5225274;28;20036;-82
2021/08/21 08:06:40;;;;;;;4.75;3.08;;;;;;;21.44;100.00;101755.81;5225411;28;20497;-82
2021/08/21 08:09:10;;;;;;;4.13;2.92;;;;;;;21.76;100.00;101744.94;5209640;28;20513;-87
2021/08/21 08:11:41;;;;;;;5.05;2.60;;;;;;;21.88;100.00;101751.38;5214121;28;20032;-82
2021/08/21 08:14:11;;;;;;;3.25;2.20;;;;;;;21.89;100.00;101752.22;5213135;28;20029;-82
2021/08/21 08:16:42;;;;;;;4.03;2.53;;;;;;;21.97;100.00;101750.06;5215903;28;20175;-82
2021/08/21 08:19:12;;;;;;;5.82;2.30;;;;;;;22.52;100.00;101748.63;5209859;28;20029;-82
2021/08/21 08:21:42;;;;;;;6.55;2.35;;;;;;;22.56;100.00;101755.34;5214224;28;20021;-82
2021/08/21 08:24:14;;;;;;;3.22;1.98;;;;;;;22.72;100.00;101757.50;5211043;28;20231;-81
2021/08/21 08:26:44;;;;;;;2.97;1.90;;;;;;;22.73;100.00;101754.53;5226226;28;20028;-82
2021/08/21 08:29:15;;;;;;;3.30;2.10;;;;;;;22.89;100.00;101755.91;5225794;28;20036;-82
2021/08/21 08:31:45;;;;;;;2.53;1.88;;;;;;;23.06;100.00;101752.56;5224887;28;20024;-82
2021/08/21 08:34:16;;;;;;;2.88;1.98;;;;;;;22.93;100.00;101757.09;5226164;28;20020;-82
2021/08/21 08:36:46;;;;;;;3.08;1.70;;;;;;;22.93;100.00;101759.00;5194492;28;20025;-82
2021/08/21 08:39:17;;;;;;;3.65;1.83;;;;;;;23.12;100.00;101765.31;5224413;28;20475;-86
2021/08/21 08:41:49;;;;;;;4.63;1.70;;;;;;;23.01;100.00;101764.19;5223908;28;20102;-82
2021/08/21 08:44:22;;;;;;;3.17;1.50;;;;;;;22.97;100.00;101771.16;5195149;28;20029;-82
2021/08/21 08:46:54;;;;;;;7.03;2.03;;;;;;;22.97;100.00;101771.16;5222207;28;20410;-82
2021/08/21 08:49:25;;;;;;;2.13;1.60;;;;;;;22.94;100.00;101771.59;5224039;28;20074;-81
2021/08/21 08:51:55;;;;;;;2.03;1.70;;;;;;;22.62;100.00;101771.66;5205861;28;20029;-83
2021/08/21 08:54:26;;;;;;;3.53;2.00;;;;;;;22.93;100.00;101770.78;5210868;28;20112;-82
2021/08/21 08:56:56;;;;;;;3.95;1.85;;;;;;;23.15;100.00;101770.34;5224209;28;20100;-81
2021/08/21 08:59:27;;;;;;;14.25;2.10;;;;;;;23.45;100.00;101763.03;5225027;28;20029;-82
2021/08/21 09:01:57;;;;;;;6.88;2.08;;;;;;;23.76;100.00;101769.41;5215331;28;20026;-82
2021/08/21 09:04:28;;;;;;;4.70;1.60;;;;;;;23.86;100.00;101755.16;5216671;28;20033;-81
2021/08/21 09:06:58;;;;;;;2.85;1.95;;;;;;;23.95;100.00;101757.34;5203437;28;20064;-82
2021/08/21 09:09:29;;;;;;;2.22;1.38;;;;;;;24.25;100.00;101751.00;5205492;28;20036;-83
2021/08/21 09:11:59;;;;;;;2.72;1.80;;;;;;;24.01;100.00;101750.94;5222027;28;20519;-82
2021/08/21 09:14:31;;;;;;;4.95;1.83;;;;;;;23.82;100.00;101748.47;5189059;28;20392;-83
2021/08/21 09:17:20;;;;;;;2.17;1.83;;;;;;;23.88;100.00;101755.75;5227034;28;20088;-83
2021/08/21 09:20:03;;;;;;;3.42;1.50;;;;;;;24.06;100.00;101750.22;5218547;28;20090;-82
2021/08/21 09:22:33;;;;;;;2.13;1.33;;;;;;;23.86;100.00;101756.00;5227773;28;20116;-83
2021/08/21 09:25:04;;;;;;;4.40;1.90;;;;;;;23.87;100.00;101743.13;5227604;28;20081;-84
2021/08/21 09:27:35;;;;;;;1.95;1.60;;;;;;;24.15;100.00;101746.09;5227132;28;20025;-83
2021/08/21 09:30:08;;;;;;;3.40;1.73;;;;;;;24.31;100.00;101744.56;5226426;28;20024;-83
2021/08/21 09:32:38;;;;;;;2.58;1.60;;;;;;;24.25;100.00;101740.84;5226776;28;20029;-83
2021/08/21 09:35:11;;;;;;;3.15;1.58;;;;;;;24.19;100.00;101741.78;5226999;28;20051;-83
2021/08/21 09:37:47;;;;;;;3.65;1.40;;;;;;;24.35;100.00;101740.28;5223070;28;20050;-84
2021/08/21 09:40:36;;;;;;;1.95;1.20;;;;;;;24.67;100.00;101742.72;5209616;28;20115;-83
2021/08/21 09:43:19;;;;;;;6.10;1.60;;;;;;;24.60;100.00;101737.34;5216513;28;20025;-82
2021/08/21 09:46:10;;;;;;;4.13;1.55;;;;;;;24.76;100.00;101739.38;5211662;28;20036;-83
2021/08/21 09:48:57;;;;;;;2.85;1.40;;;;;;;24.93;100.00;101741.38;5209226;28;20032;-83
2021/08/21 09:51:32;;;;;;;1.50;1.38;;;;;;;25.17;100.00;101731.25;5222763;28;20108;-82
2021/08/21 09:54:04;;;;;;;5.65;1.58;;;;;;;25.33;100.00;101729.66;5226240;28;20100;-83
2021/08/21 09:56:37;;;;;;;1.73;1.40;;;;;;;25.43;100.00;101733.44;5224418;28;20021;-82
2021/08/21 09:59:08;;;;;;;2.33;1.50;;;;;;;25.65;100.00;101730.81;5222246;28;20048;-84
2021/08/21 10:01:39;;;;;;;2.08;1.67;;;;;;;25.27;100.00;101736.94;5222460;28;20013;-83
2021/08/21 10:04:10;;;;;;;2.22;1.50;;;;;;;25.12;100.00;101736.63;5223687;28;20028;-84
2021/08/21 10:06:41;;;;;;;1.55;1.38;;;;;;;25.16;100.00;101735.06;5225508;28;20021;-82
2021/08/21 10:09:11;;;;;;;5.55;1.42;;;;;;;25.29;100.00;101726.53;5222806;28;20058;-82
2021/08/21 10:11:42;;;;;;;3.83;1.58;;;;;;;25.27;100.00;101723.22;5235206;28;20539;-82
2021/08/21 10:14:17;;;;;;;2.22;1.30;;;;;;;25.19;100.00;101723.59;5225759;28;20328;-83
2021/08/21 10:16:48;;;;;;;3.28;1.23;;;;;;;25.47;100.00;101722.78;5225355;28;20033;-82
2021/08/21 10:19:22;;;;;;;4.53;1.52;;;;;;;25.57;100.00;101721.06;5219082;28;20037;-83
2021/08/21 10:21:56;;;;;;;5.65;1.30;;;;;;;25.90;100.00;101705.75;5218225;28;20028;-82
2021/08/21 10:24:34;;;;;;;3.08;1.30;;;;;;;25.74;100.00;101707.38;5225401;28;20025;-82
2021/08/21 10:27:23;;;;;;;2.97;0.93;;;;;;;25.97;97.64;101709.22;5225474;28;20543;-83
2021/08/21 10:30:06;;;;;;;2.03;1.02;;;;;;;26.17;100.00;101708.72;5225260;28;20367;-81
2021/08/21 10:32:40;;;;;;;1.38;1.02;;;;;;;25.79;100.00;101706.66;5212265;28;20097;-81
2021/08/21 10:35:12;;;;;;;2.78;1.10;;;;;;;25.61;100.00;101702.19;5224960;28;20029;-84
2021/08/21 10:37:45;;;;;;;2.90;1.20;;;;;;;25.95;100.00;101711.34;5226449;28;20067;-83
2021/08/21 10:40:25;;;;;;;7.03;1.42;;;;;;;26.07;100.00;101703.06;5222202;28;20028;-83
2021/08/21 10:42:58;;;;;;;6.05;1.27;;;;;;;25.97;100.00;101706.47;5219376;28;20471;-82
2021/08/21 10:45:39;;;;;;;2.33;1.15;;;;;;;26.10;96.60;101702.53;5219290;28;20075;-82
2021/08/21 10:48:13;;;;;;;4.03;1.50;;;;;;;26.21;100.00;101695.31;5221563;28;20037;-82
2021/08/21 10:50:45;;;;;;;2.10;1.35;;;;;;;26.32;100.00;101705.38;5225662;28;20071;-82
2021/08/21 10:53:27;;;;;;;4.07;1.00;;;;;;;26.06;99.10;101701.38;5213274;28;20112;-82
2021/08/21 10:56:00;;;;;;;1.40;1.00;;;;;;;26.66;97.73;101697.97;5226116;28;20445;-82
2021/08/21 10:58:31;;;;;;;1.73;1.50;;;;;;;26.43;95.89;101693.50;5212881;28;20021;-82
2021/08/21 11:01:06;;;;;;;2.38;1.30;;;;;;;26.67;86.67;101696.03;5212247;28;20039;-82
2021/08/21 11:03:37;;;;;;;2.42;1.38;;;;;;;27.23;82.04;101691.31;5225601;28;20505;-82
2021/08/21 11:06:11;;;;;;;2.15;1.63;;;;;;;27.34;82.43;101695.84;5222777;28;20025;-82
2021/08/21 11:08:41;;;;;;;2.65;1.40;;;;;;;27.24;83.06;101690.22;5216048;28;20497;-82
2021/08/21 11:11:19;;;;;;;3.63;1.48;;;;;;;26.89;100.00;101688.63;5225344;28;20037;-82
2021/08/21 11:14:10;;;;;;;1.98;1.45;;;;;;;26.84;95.51;101680.31;5226267;28;20027;-82
2021/08/21 11:16:55;;;;;;;4.10;1.55;;;;;;;27.02;88.70;101674.50;5225411;28;20580;-82
2021/08/21 11:19:26;;;;;;;5.90;1.60;;;;;;;26.83;82.40;101679.47;5219553;28;20114;-82
2021/08/21 11:22:08;;;;;;;2.20;1.50;;;;;;;26.75;100.00;101674.41;5219205;28;20060;-82
2021/08/21 11:24:56;;;;;;;3.53;1.58;;;;;;;26.90;89.12;101679.28;5226625;28;20029;-82
2021/08/21 11:27:28;;;;;;;3.40;1.52;;;;;;;27.16;93.89;101674.13;5226181;28;20024;-82